sensor_id;sensor_type;location;lat;lon;timestamp;P1;durP1;ratioP1;P2;durP2;ratioP2
73776;SDS011;62088;50.240;2.696;2022-11-14T00:02:01;10.82;;;7.63;;
73776;SDS011;62088;50.240;2.696;2022-11-14T00:04:47;11.18;;;8.60;;
73776;SDS011;62088;50.240;2.696;2022-11-14T00:07:33;15.60;;;10.07;;
73776;SDS011;62088;50.240;2.696;2022-11-14T00:10:19;13.35;;;9.07;;
73776;SDS011;62088;50.240;2.696;2022-11-14T00:13:04;13.48;;;9.68;;
73776;SDS011;62088;50.240;2.696;2022-11-14T00:15:50;14.50;;;9.57;;
73776;SDS011;62088;50.240;2.696;2022-11-14T00:18:39;14.00;;;8.93;;
73776;SDS011;62088;50.240;2.696;2022-11-14T00:21:25;13.70;;;8.32;;
73776;SDS011;62088;50.240;2.696;2022-11-14T00:24:10;9.77;;;6.60;;
73776;SDS011;62088;50.240;2.696;2022-11-14T00:26:56;10.15;;;7.22;;
73776;SDS011;62088;50.240;2.696;2022-11-14T00:29:41;12.48;;;7.28;;
73776;SDS011;62088;50.240;2.696;2022-11-14T00:32:27;10.80;;;7.82;;
73776;SDS011;62088;50.240;2.696;2022-11-14T00:35:12;11.60;;;6.90;;
73776;SDS011;62088;50.240;2.696;2022-11-14T00:37:58;11.30;;;8.13;;
73776;SDS011;62088;50.240;2.696;2022-11-14T00:40:44;9.30;;;6.80;;
73776;SDS011;62088;50.240;2.696;2022-11-14T00:43:30;10.73;;;6.85;;
73776;SDS011;62088;50.240;2.696;2022-11-14T00:46:16;11.63;;;8.38;;
73776;SDS011;62088;50.240;2.696;2022-11-14T00:49:01;17.38;;;9.30;;
73776;SDS011;62088;50.240;2.696;2022-11-14T00:51:47;11.50;;;8.35;;
73776;SDS011;62088;50.240;2.696;2022-11-14T00:54:32;13.20;;;8.65;;
73776;SDS011;62088;50.240;2.696;2022-11-14T00:57:18;12.80;;;8.35;;
73776;SDS011;62088;50.240;2.696;2022-11-14T01:00:04;11.20;;;7.60;;
73776;SDS011;62088;50.240;2.696;2022-11-14T01:02:51;11.68;;;8.77;;
73776;SDS011;62088;50.240;2.696;2022-11-14T01:05:41;12.18;;;8.27;;
73776;SDS011;62088;50.240;2.696;2022-11-14T01:08:28;9.93;;;6.88;;
73776;SDS011;62088;50.240;2.696;2022-11-14T01:11:15;9.52;;;7.13;;
73776;SDS011;62088;50.240;2.696;2022-11-14T01:14:06;11.77;;;7.93;;
73776;SDS011;62088;50.240;2.696;2022-11-14T01:16:52;11.77;;;7.80;;
73776;SDS011;62088;50.240;2.696;2022-11-14T01:19:38;10.35;;;7.40;;
73776;SDS011;62088;50.240;2.696;2022-11-14T01:22:24;10.60;;;7.38;;
73776;SDS011;62088;50.240;2.696;2022-11-14T01:25:10;9.77;;;7.30;;
73776;SDS011;62088;50.240;2.696;2022-11-14T01:27:55;13.38;;;8.70;;
73776;SDS011;62088;50.240;2.696;2022-11-14T01:30:40;10.77;;;7.55;;
73776;SDS011;62088;50.240;2.696;2022-11-14T01:33:26;9.95;;;6.95;;
73776;SDS011;62088;50.240;2.696;2022-11-14T01:36:12;11.90;;;8.10;;
73776;SDS011;62088;50.240;2.696;2022-11-14T01:38:57;11.10;;;7.93;;
73776;SDS011;62088;50.240;2.696;2022-11-14T01:41:43;10.43;;;7.45;;
73776;SDS011;62088;50.240;2.696;2022-11-14T01:44:48;10.75;;;7.75;;
73776;SDS011;62088;50.240;2.696;2022-11-14T01:47:36;9.85;;;7.22;;
73776;SDS011;62088;50.240;2.696;2022-11-14T01:50:22;12.02;;;7.07;;
73776;SDS011;62088;50.240;2.696;2022-11-14T01:53:08;12.63;;;8.13;;
73776;SDS011;62088;50.240;2.696;2022-11-14T01:55:54;11.63;;;7.38;;
73776;SDS011;62088;50.240;2.696;2022-11-14T01:58:44;11.38;;;7.55;;
73776;SDS011;62088;50.240;2.696;2022-11-14T02:01:36;11.80;;;7.63;;
73776;SDS011;62088;50.240;2.696;2022-11-14T02:04:27;9.98;;;6.45;;
73776;SDS011;62088;50.240;2.696;2022-11-14T02:07:21;9.13;;;6.05;;
73776;SDS011;62088;50.240;2.696;2022-11-14T02:10:14;10.30;;;7.63;;
73776;SDS011;62088;50.240;2.696;2022-11-14T02:13:01;11.30;;;7.68;;
73776;SDS011;62088;50.240;2.696;2022-11-14T02:15:46;11.15;;;7.18;;
73776;SDS011;62088;50.240;2.696;2022-11-14T02:18:32;9.57;;;6.05;;
73776;SDS011;62088;50.240;2.696;2022-11-14T02:21:18;10.65;;;7.45;;
73776;SDS011;62088;50.240;2.696;2022-11-14T02:24:07;11.20;;;7.90;;
73776;SDS011;62088;50.240;2.696;2022-11-14T02:26:54;11.23;;;8.02;;
73776;SDS011;62088;50.240;2.696;2022-11-14T02:29:40;10.23;;;6.78;;
73776;SDS011;62088;50.240;2.696;2022-11-14T02:32:25;12.80;;;8.07;;
73776;SDS011;62088;50.240;2.696;2022-11-14T02:35:14;10.82;;;6.57;;
73776;SDS011;62088;50.240;2.696;2022-11-14T02:37:59;10.77;;;7.50;;
73776;SDS011;62088;50.240;2.696;2022-11-14T02:40:45;13.75;;;7.70;;
73776;SDS011;62088;50.240;2.696;2022-11-14T02:43:30;11.85;;;8.35;;
73776;SDS011;62088;50.240;2.696;2022-11-14T02:46:16;14.07;;;8.60;;
73776;SDS011;62088;50.240;2.696;2022-11-14T02:49:02;12.02;;;7.45;;
73776;SDS011;62088;50.240;2.696;2022-11-14T02:51:47;11.77;;;7.82;;
73776;SDS011;62088;50.240;2.696;2022-11-14T02:54:32;11.68;;;7.63;;
73776;SDS011;62088;50.240;2.696;2022-11-14T02:57:18;13.73;;;8.48;;
73776;SDS011;62088;50.240;2.696;2022-11-14T03:00:04;13.45;;;8.98;;
73776;SDS011;62088;50.240;2.696;2022-11-14T03:02:58;10.38;;;7.32;;
73776;SDS011;62088;50.240;2.696;2022-11-14T03:05:44;14.50;;;9.32;;
73776;SDS011;62088;50.240;2.696;2022-11-14T03:08:29;13.95;;;8.38;;
73776;SDS011;62088;50.240;2.696;2022-11-14T03:11:15;13.27;;;8.50;;
73776;SDS011;62088;50.240;2.696;2022-11-14T03:14:01;13.80;;;9.73;;
73776;SDS011;62088;50.240;2.696;2022-11-14T03:16:46;16.48;;;9.77;;
73776;SDS011;62088;50.240;2.696;2022-11-14T03:19:32;16.17;;;10.80;;
73776;SDS011;62088;50.240;2.696;2022-11-14T03:22:17;15.13;;;9.40;;
73776;SDS011;62088;50.240;2.696;2022-11-14T03:25:03;15.70;;;9.85;;
73776;SDS011;62088;50.240;2.696;2022-11-14T03:27:49;16.63;;;10.25;;
73776;SDS011;62088;50.240;2.696;2022-11-14T03:30:34;16.30;;;10.32;;
73776;SDS011;62088;50.240;2.696;2022-11-14T03:33:20;14.25;;;9.10;;
73776;SDS011;62088;50.240;2.696;2022-11-14T03:36:06;16.45;;;10.23;;
73776;SDS011;62088;50.240;2.696;2022-11-14T03:38:52;16.52;;;10.15;;
73776;SDS011;62088;50.240;2.696;2022-11-14T03:41:37;13.80;;;9.70;;
73776;SDS011;62088;50.240;2.696;2022-11-14T03:44:23;16.10;;;9.68;;
73776;SDS011;62088;50.240;2.696;2022-11-14T03:47:08;15.73;;;10.65;;
73776;SDS011;62088;50.240;2.696;2022-11-14T03:49:54;13.65;;;8.95;;
73776;SDS011;62088;50.240;2.696;2022-11-14T03:52:39;15.77;;;9.50;;
73776;SDS011;62088;50.240;2.696;2022-11-14T03:55:25;14.80;;;8.70;;
73776;SDS011;62088;50.240;2.696;2022-11-14T03:58:11;15.77;;;9.57;;
73776;SDS011;62088;50.240;2.696;2022-11-14T04:00:56;12.45;;;8.27;;
73776;SDS011;62088;50.240;2.696;2022-11-14T04:03:42;11.70;;;7.32;;
73776;SDS011;62088;50.240;2.696;2022-11-14T04:06:28;14.18;;;8.82;;
73776;SDS011;62088;50.240;2.696;2022-11-14T04:09:14;12.68;;;7.82;;
73776;SDS011;62088;50.240;2.696;2022-11-14T04:11:59;13.52;;;8.82;;
73776;SDS011;62088;50.240;2.696;2022-11-14T04:14:45;14.25;;;7.70;;
73776;SDS011;62088;50.240;2.696;2022-11-14T04:17:31;11.82;;;7.95;;
73776;SDS011;62088;50.240;2.696;2022-11-14T04:20:23;15.80;;;9.18;;
73776;SDS011;62088;50.240;2.696;2022-11-14T04:23:09;18.63;;;12.02;;
73776;SDS011;62088;50.240;2.696;2022-11-14T04:25:55;16.02;;;9.80;;
73776;SDS011;62088;50.240;2.696;2022-11-14T04:28:41;16.13;;;9.50;;
73776;SDS011;62088;50.240;2.696;2022-11-14T04:31:27;17.75;;;10.55;;
73776;SDS011;62088;50.240;2.696;2022-11-14T04:34:12;15.20;;;9.65;;
73776;SDS011;62088;50.240;2.696;2022-11-14T04:36:58;16.98;;;10.45;;
73776;SDS011;62088;50.240;2.696;2022-11-14T04:39:43;21.55;;;9.98;;
73776;SDS011;62088;50.240;2.696;2022-11-14T04:42:29;13.90;;;7.80;;
73776;SDS011;62088;50.240;2.696;2022-11-14T04:45:14;13.57;;;7.30;;
73776;SDS011;62088;50.240;2.696;2022-11-14T04:48:01;12.18;;;8.20;;
73776;SDS011;62088;50.240;2.696;2022-11-14T04:50:47;17.52;;;7.43;;
73776;SDS011;62088;50.240;2.696;2022-11-14T04:53:33;12.25;;;7.30;;
73776;SDS011;62088;50.240;2.696;2022-11-14T04:56:18;25.60;;;6.63;;
73776;SDS011;62088;50.240;2.696;2022-11-14T04:59:07;16.15;;;7.43;;
73776;SDS011;62088;50.240;2.696;2022-11-14T05:01:52;9.82;;;6.50;;
73776;SDS011;62088;50.240;2.696;2022-11-14T05:04:38;11.55;;;6.90;;
73776;SDS011;62088;50.240;2.696;2022-11-14T05:07:24;15.57;;;6.80;;
73776;SDS011;62088;50.240;2.696;2022-11-14T05:10:09;12.02;;;6.28;;
73776;SDS011;62088;50.240;2.696;2022-11-14T05:12:55;13.00;;;7.38;;
73776;SDS011;62088;50.240;2.696;2022-11-14T05:15:40;15.70;;;8.80;;
73776;SDS011;62088;50.240;2.696;2022-11-14T05:18:26;11.15;;;7.05;;
73776;SDS011;62088;50.240;2.696;2022-11-14T05:21:13;15.40;;;7.97;;
73776;SDS011;62088;50.240;2.696;2022-11-14T05:23:59;11.80;;;8.00;;
73776;SDS011;62088;50.240;2.696;2022-11-14T05:26:44;52.80;;;9.02;;
73776;SDS011;62088;50.240;2.696;2022-11-14T05:29:30;13.15;;;8.75;;
73776;SDS011;62088;50.240;2.696;2022-11-14T05:32:15;16.38;;;8.85;;
73776;SDS011;62088;50.240;2.696;2022-11-14T05:35:01;14.27;;;9.45;;
73776;SDS011;62088;50.240;2.696;2022-11-14T05:37:48;13.73;;;8.95;;
73776;SDS011;62088;50.240;2.696;2022-11-14T05:40:33;13.13;;;8.63;;
73776;SDS011;62088;50.240;2.696;2022-11-14T05:43:19;16.92;;;8.90;;
73776;SDS011;62088;50.240;2.696;2022-11-14T05:46:05;13.10;;;9.18;;
73776;SDS011;62088;50.240;2.696;2022-11-14T05:48:53;22.67;;;8.88;;
73776;SDS011;62088;50.240;2.696;2022-11-14T05:51:39;21.98;;;9.18;;
73776;SDS011;62088;50.240;2.696;2022-11-14T05:54:24;20.88;;;8.95;;
73776;SDS011;62088;50.240;2.696;2022-11-14T05:57:10;15.10;;;8.60;;
73776;SDS011;62088;50.240;2.696;2022-11-14T05:59:56;16.65;;;9.70;;
73776;SDS011;62088;50.240;2.696;2022-11-14T06:02:41;16.25;;;9.15;;
73776;SDS011;62088;50.240;2.696;2022-11-14T06:05:27;16.83;;;8.85;;
73776;SDS011;62088;50.240;2.696;2022-11-14T06:08:12;14.35;;;8.98;;
73776;SDS011;62088;50.240;2.696;2022-11-14T06:11:07;16.88;;;8.98;;
73776;SDS011;62088;50.240;2.696;2022-11-14T06:14:01;15.48;;;9.18;;
73776;SDS011;62088;50.240;2.696;2022-11-14T06:16:54;19.05;;;9.30;;
73776;SDS011;62088;50.240;2.696;2022-11-14T06:19:40;17.25;;;9.02;;
73776;SDS011;62088;50.240;2.696;2022-11-14T06:22:25;21.38;;;8.38;;
73776;SDS011;62088;50.240;2.696;2022-11-14T06:25:11;17.15;;;9.95;;
73776;SDS011;62088;50.240;2.696;2022-11-14T06:27:57;20.77;;;11.60;;
73776;SDS011;62088;50.240;2.696;2022-11-14T06:30:43;21.48;;;9.95;;
73776;SDS011;62088;50.240;2.696;2022-11-14T06:33:32;17.17;;;9.70;;
73776;SDS011;62088;50.240;2.696;2022-11-14T06:36:19;18.23;;;9.57;;
73776;SDS011;62088;50.240;2.696;2022-11-14T06:39:04;22.65;;;9.93;;
73776;SDS011;62088;50.240;2.696;2022-11-14T06:41:49;15.60;;;9.70;;
73776;SDS011;62088;50.240;2.696;2022-11-14T06:44:35;22.55;;;10.25;;
73776;SDS011;62088;50.240;2.696;2022-11-14T06:47:20;23.70;;;10.43;;
73776;SDS011;62088;50.240;2.696;2022-11-14T06:50:06;19.80;;;9.00;;
73776;SDS011;62088;50.240;2.696;2022-11-14T06:52:52;16.15;;;8.18;;
73776;SDS011;62088;50.240;2.696;2022-11-14T06:55:38;14.57;;;8.98;;
73776;SDS011;62088;50.240;2.696;2022-11-14T06:58:24;17.80;;;8.75;;
73776;SDS011;62088;50.240;2.696;2022-11-14T07:01:14;19.30;;;8.68;;
73776;SDS011;62088;50.240;2.696;2022-11-14T07:04:01;18.58;;;9.35;;
73776;SDS011;62088;50.240;2.696;2022-11-14T07:06:47;21.15;;;8.90;;
73776;SDS011;62088;50.240;2.696;2022-11-14T07:09:33;13.25;;;8.65;;
73776;SDS011;62088;50.240;2.696;2022-11-14T07:12:18;16.83;;;9.18;;
73776;SDS011;62088;50.240;2.696;2022-11-14T07:15:04;18.33;;;8.48;;
73776;SDS011;62088;50.240;2.696;2022-11-14T07:17:50;15.10;;;9.20;;
73776;SDS011;62088;50.240;2.696;2022-11-14T07:20:35;17.48;;;9.10;;
73776;SDS011;62088;50.240;2.696;2022-11-14T07:23:21;20.35;;;9.05;;
73776;SDS011;62088;50.240;2.696;2022-11-14T07:26:07;19.27;;;9.65;;
73776;SDS011;62088;50.240;2.696;2022-11-14T07:28:55;14.35;;;9.07;;
73776;SDS011;62088;50.240;2.696;2022-11-14T07:31:46;16.75;;;8.65;;
73776;SDS011;62088;50.240;2.696;2022-11-14T07:34:32;14.75;;;8.15;;
73776;SDS011;62088;50.240;2.696;2022-11-14T07:37:17;16.05;;;8.25;;
73776;SDS011;62088;50.240;2.696;2022-11-14T07:40:03;22.77;;;8.63;;
73776;SDS011;62088;50.240;2.696;2022-11-14T07:42:49;29.55;;;9.10;;
73776;SDS011;62088;50.240;2.696;2022-11-14T07:45:36;16.73;;;8.50;;
73776;SDS011;62088;50.240;2.696;2022-11-14T07:48:21;19.00;;;8.80;;
73776;SDS011;62088;50.240;2.696;2022-11-14T07:51:14;19.50;;;8.95;;
73776;SDS011;62088;50.240;2.696;2022-11-14T07:54:01;16.52;;;9.43;;
73776;SDS011;62088;50.240;2.696;2022-11-14T07:56:47;29.83;;;10.23;;
73776;SDS011;62088;50.240;2.696;2022-11-14T07:59:33;21.42;;;9.60;;
73776;SDS011;62088;50.240;2.696;2022-11-14T08:02:18;22.30;;;9.60;;
73776;SDS011;62088;50.240;2.696;2022-11-14T08:05:04;33.03;;;9.70;;
73776;SDS011;62088;50.240;2.696;2022-11-14T08:07:50;28.20;;;10.23;;
73776;SDS011;62088;50.240;2.696;2022-11-14T08:10:36;19.23;;;9.52;;
73776;SDS011;62088;50.240;2.696;2022-11-14T08:13:21;16.65;;;9.57;;
73776;SDS011;62088;50.240;2.696;2022-11-14T08:16:17;17.10;;;9.43;;
73776;SDS011;62088;50.240;2.696;2022-11-14T08:19:03;19.17;;;9.30;;
73776;SDS011;62088;50.240;2.696;2022-11-14T08:21:49;16.52;;;9.38;;
73776;SDS011;62088;50.240;2.696;2022-11-14T08:24:34;18.63;;;9.13;;
73776;SDS011;62088;50.240;2.696;2022-11-14T08:27:20;32.75;;;10.88;;
73776;SDS011;62088;50.240;2.696;2022-11-14T08:30:06;33.38;;;10.90;;
73776;SDS011;62088;50.240;2.696;2022-11-14T08:32:52;20.63;;;9.02;;
73776;SDS011;62088;50.240;2.696;2022-11-14T08:35:38;34.08;;;9.18;;
73776;SDS011;62088;50.240;2.696;2022-11-14T08:38:23;33.80;;;9.13;;
73776;SDS011;62088;50.240;2.696;2022-11-14T08:41:09;28.25;;;8.57;;
73776;SDS011;62088;50.240;2.696;2022-11-14T08:43:54;43.40;;;9.95;;
73776;SDS011;62088;50.240;2.696;2022-11-14T08:46:39;25.25;;;9.35;;
73776;SDS011;62088;50.240;2.696;2022-11-14T08:49:25;44.90;;;10.45;;
73776;SDS011;62088;50.240;2.696;2022-11-14T08:52:11;25.08;;;9.70;;
73776;SDS011;62088;50.240;2.696;2022-11-14T08:55:00;31.52;;;11.30;;
73776;SDS011;62088;50.240;2.696;2022-11-14T08:57:46;42.80;;;10.57;;
73776;SDS011;62088;50.240;2.696;2022-11-14T09:00:33;22.02;;;9.88;;
73776;SDS011;62088;50.240;2.696;2022-11-14T09:03:20;24.92;;;9.25;;
73776;SDS011;62088;50.240;2.696;2022-11-14T09:06:06;24.70;;;9.10;;
73776;SDS011;62088;50.240;2.696;2022-11-14T09:08:52;24.10;;;8.98;;
73776;SDS011;62088;50.240;2.696;2022-11-14T09:11:37;24.40;;;9.07;;
73776;SDS011;62088;50.240;2.696;2022-11-14T09:14:23;40.95;;;9.95;;
73776;SDS011;62088;50.240;2.696;2022-11-14T09:17:08;71.25;;;10.25;;
73776;SDS011;62088;50.240;2.696;2022-11-14T09:19:54;28.20;;;9.43;;
73776;SDS011;62088;50.240;2.696;2022-11-14T09:22:39;31.30;;;10.25;;
73776;SDS011;62088;50.240;2.696;2022-11-14T09:25:24;19.00;;;9.48;;
73776;SDS011;62088;50.240;2.696;2022-11-14T09:28:11;24.20;;;9.68;;
73776;SDS011;62088;50.240;2.696;2022-11-14T09:31:03;23.27;;;9.60;;
73776;SDS011;62088;50.240;2.696;2022-11-14T09:33:50;44.47;;;10.77;;
73776;SDS011;62088;50.240;2.696;2022-11-14T09:36:36;31.52;;;9.43;;
73776;SDS011;62088;50.240;2.696;2022-11-14T09:39:21;23.65;;;10.20;;
73776;SDS011;62088;50.240;2.696;2022-11-14T09:45:09;52.17;;;9.35;;
73776;SDS011;62088;50.240;2.696;2022-11-14T09:48:04;37.25;;;9.30;;
73776;SDS011;62088;50.240;2.696;2022-11-14T09:56:50;28.90;;;11.65;;
73776;SDS011;62088;50.240;2.696;2022-11-14T09:59:36;32.20;;;12.30;;
73776;SDS011;62088;50.240;2.696;2022-11-14T10:02:38;24.73;;;13.98;;
73776;SDS011;62088;50.240;2.696;2022-11-14T10:05:53;20.15;;;12.13;;
73776;SDS011;62088;50.240;2.696;2022-11-14T10:18:23;21.27;;;10.07;;
73776;SDS011;62088;50.240;2.696;2022-11-14T10:34:34;31.08;;;11.35;;
73776;SDS011;62088;50.240;2.696;2022-11-14T10:37:36;18.95;;;10.35;;
73776;SDS011;62088;50.240;2.696;2022-11-14T10:40:38;20.45;;;10.18;;
73776;SDS011;62088;50.240;2.696;2022-11-14T10:43:33;19.05;;;9.90;;
73776;SDS011;62088;50.240;2.696;2022-11-14T10:46:29;23.25;;;9.93;;
73776;SDS011;62088;50.240;2.696;2022-11-14T10:49:22;17.88;;;9.93;;
73776;SDS011;62088;50.240;2.696;2022-11-14T10:52:12;18.35;;;9.13;;
73776;SDS011;62088;50.240;2.696;2022-11-14T10:55:05;16.70;;;8.70;;
73776;SDS011;62088;50.240;2.696;2022-11-14T10:57:53;18.60;;;8.95;;
73776;SDS011;62088;50.240;2.696;2022-11-14T11:00:39;13.88;;;8.35;;
73776;SDS011;62088;50.240;2.696;2022-11-14T11:03:42;17.63;;;8.05;;
73776;SDS011;62088;50.240;2.696;2022-11-14T11:06:29;12.32;;;7.78;;
73776;SDS011;62088;50.240;2.696;2022-11-14T11:09:16;14.20;;;8.13;;
73776;SDS011;62088;50.240;2.696;2022-11-14T11:18:22;20.17;;;7.72;;
73776;SDS011;62088;50.240;2.696;2022-11-14T11:21:12;21.73;;;8.27;;
73776;SDS011;62088;50.240;2.696;2022-11-14T11:23:59;11.88;;;7.85;;
73776;SDS011;62088;50.240;2.696;2022-11-14T11:26:44;11.73;;;7.38;;
73776;SDS011;62088;50.240;2.696;2022-11-14T11:29:30;12.70;;;7.78;;
73776;SDS011;62088;50.240;2.696;2022-11-14T11:32:22;15.25;;;8.27;;
73776;SDS011;62088;50.240;2.696;2022-11-14T11:35:12;13.85;;;8.25;;
73776;SDS011;62088;50.240;2.696;2022-11-14T11:38:00;14.13;;;7.80;;
73776;SDS011;62088;50.240;2.696;2022-11-14T11:40:47;13.18;;;8.10;;
73776;SDS011;62088;50.240;2.696;2022-11-14T11:46:30;11.80;;;7.07;;
73776;SDS011;62088;50.240;2.696;2022-11-14T11:55:20;12.27;;;7.55;;
73776;SDS011;62088;50.240;2.696;2022-11-14T11:58:20;14.63;;;7.88;;
73776;SDS011;62088;50.240;2.696;2022-11-14T12:01:08;11.32;;;7.00;;
73776;SDS011;62088;50.240;2.696;2022-11-14T12:03:55;13.50;;;8.48;;
73776;SDS011;62088;50.240;2.696;2022-11-14T12:06:45;16.58;;;8.98;;
73776;SDS011;62088;50.240;2.696;2022-11-14T12:18:47;16.33;;;9.38;;
73776;SDS011;62088;50.240;2.696;2022-11-14T12:31:26;17.17;;;10.37;;
73776;SDS011;62088;50.240;2.696;2022-11-14T12:34:26;16.33;;;11.50;;
73776;SDS011;62088;50.240;2.696;2022-11-14T12:37:23;19.08;;;13.32;;
73776;SDS011;62088;50.240;2.696;2022-11-14T12:40:28;18.63;;;12.20;;
73776;SDS011;62088;50.240;2.696;2022-11-14T12:46:21;16.27;;;10.77;;
73776;SDS011;62088;50.240;2.696;2022-11-14T13:01:00;16.85;;;10.65;;
73776;SDS011;62088;50.240;2.696;2022-11-14T13:04:04;19.20;;;11.55;;
73776;SDS011;62088;50.240;2.696;2022-11-14T13:07:28;18.02;;;11.02;;
73776;SDS011;62088;50.240;2.696;2022-11-14T13:13:13;27.40;;;12.05;;
73776;SDS011;62088;50.240;2.696;2022-11-14T13:16:23;25.38;;;12.70;;
73776;SDS011;62088;50.240;2.696;2022-11-14T13:19:28;26.23;;;13.00;;
73776;SDS011;62088;50.240;2.696;2022-11-14T13:22:35;27.02;;;13.52;;
73776;SDS011;62088;50.240;2.696;2022-11-14T13:25:24;27.25;;;15.07;;
73776;SDS011;62088;50.240;2.696;2022-11-14T13:43:54;34.22;;;13.63;;
73776;SDS011;62088;50.240;2.696;2022-11-14T13:47:12;30.60;;;13.65;;
73776;SDS011;62088;50.240;2.696;2022-11-14T13:50:11;26.50;;;13.20;;
73776;SDS011;62088;50.240;2.696;2022-11-14T13:53:01;31.25;;;13.10;;
73776;SDS011;62088;50.240;2.696;2022-11-14T13:55:55;24.42;;;13.93;;
73776;SDS011;62088;50.240;2.696;2022-11-14T14:01:46;27.92;;;12.73;;
73776;SDS011;62088;50.240;2.696;2022-11-14T14:13:37;46.63;;;13.65;;
73776;SDS011;62088;50.240;2.696;2022-11-14T14:32:22;42.95;;;15.10;;
73776;SDS011;62088;50.240;2.696;2022-11-14T14:35:27;27.25;;;13.45;;
73776;SDS011;62088;50.240;2.696;2022-11-14T14:38:23;24.07;;;13.30;;
73776;SDS011;62088;50.240;2.696;2022-11-14T14:41:12;31.27;;;13.65;;
73776;SDS011;62088;50.240;2.696;2022-11-14T14:43:59;35.70;;;14.55;;
73776;SDS011;62088;50.240;2.696;2022-11-14T14:46:44;30.23;;;14.07;;
73776;SDS011;62088;50.240;2.696;2022-11-14T14:49:31;54.10;;;15.88;;
73776;SDS011;62088;50.240;2.696;2022-11-14T14:52:41;38.45;;;13.45;;
73776;SDS011;62088;50.240;2.696;2022-11-14T14:55:26;34.03;;;14.18;;
73776;SDS011;62088;50.240;2.696;2022-11-14T15:01:12;35.83;;;12.45;;
73776;SDS011;62088;50.240;2.696;2022-11-14T15:04:06;50.28;;;13.77;;
73776;SDS011;62088;50.240;2.696;2022-11-14T15:06:53;61.42;;;14.82;;
73776;SDS011;62088;50.240;2.696;2022-11-14T15:13:03;34.95;;;14.27;;
73776;SDS011;62088;50.240;2.696;2022-11-14T15:15:49;22.15;;;14.32;;
73776;SDS011;62088;50.240;2.696;2022-11-14T15:18:35;43.92;;;14.35;;
73776;SDS011;62088;50.240;2.696;2022-11-14T15:21:23;42.15;;;15.27;;
73776;SDS011;62088;50.240;2.696;2022-11-14T15:24:17;46.97;;;16.50;;
73776;SDS011;62088;50.240;2.696;2022-11-14T15:27:10;56.50;;;17.63;;
73776;SDS011;62088;50.240;2.696;2022-11-14T15:30:01;69.22;;;16.33;;
73776;SDS011;62088;50.240;2.696;2022-11-14T15:32:55;43.40;;;16.52;;
73776;SDS011;62088;50.240;2.696;2022-11-14T15:35:42;57.35;;;18.63;;
73776;SDS011;62088;50.240;2.696;2022-11-14T15:38:28;46.70;;;17.17;;
73776;SDS011;62088;50.240;2.696;2022-11-14T15:41:30;44.10;;;17.23;;
73776;SDS011;62088;50.240;2.696;2022-11-14T15:44:31;67.95;;;18.27;;
73776;SDS011;62088;50.240;2.696;2022-11-14T15:47:24;41.30;;;16.15;;
73776;SDS011;62088;50.240;2.696;2022-11-14T15:56:23;46.40;;;15.25;;
73776;SDS011;62088;50.240;2.696;2022-11-14T15:59:08;40.33;;;16.48;;
73776;SDS011;62088;50.240;2.696;2022-11-14T16:01:59;54.60;;;16.85;;
73776;SDS011;62088;50.240;2.696;2022-11-14T16:04:49;61.10;;;17.83;;
73776;SDS011;62088;50.240;2.696;2022-11-14T16:07:35;36.85;;;17.25;;
73776;SDS011;62088;50.240;2.696;2022-11-14T16:10:21;65.70;;;17.92;;
73776;SDS011;62088;50.240;2.696;2022-11-14T16:13:10;38.55;;;17.27;;
73776;SDS011;62088;50.240;2.696;2022-11-14T16:15:55;53.97;;;18.35;;
73776;SDS011;62088;50.240;2.696;2022-11-14T16:18:41;51.15;;;18.92;;
73776;SDS011;62088;50.240;2.696;2022-11-14T16:21:26;37.05;;;18.02;;
73776;SDS011;62088;50.240;2.696;2022-11-14T16:24:16;59.75;;;20.70;;
73776;SDS011;62088;50.240;2.696;2022-11-14T16:27:02;50.25;;;21.45;;
73776;SDS011;62088;50.240;2.696;2022-11-14T16:29:48;52.53;;;23.30;;
73776;SDS011;62088;50.240;2.696;2022-11-14T16:32:34;44.30;;;21.52;;
73776;SDS011;62088;50.240;2.696;2022-11-14T16:35:21;54.80;;;23.95;;
73776;SDS011;62088;50.240;2.696;2022-11-14T16:38:08;45.50;;;22.98;;
73776;SDS011;62088;50.240;2.696;2022-11-14T16:40:56;51.75;;;24.67;;
73776;SDS011;62088;50.240;2.696;2022-11-14T16:43:44;54.67;;;23.10;;
73776;SDS011;62088;50.240;2.696;2022-11-14T16:46:30;48.60;;;25.23;;
73776;SDS011;62088;50.240;2.696;2022-11-14T16:49:16;68.90;;;28.17;;
73776;SDS011;62088;50.240;2.696;2022-11-14T16:52:03;55.97;;;25.20;;
73776;SDS011;62088;50.240;2.696;2022-11-14T16:54:52;84.63;;;27.95;;
73776;SDS011;62088;50.240;2.696;2022-11-14T16:57:38;59.95;;;25.30;;
73776;SDS011;62088;50.240;2.696;2022-11-14T17:00:24;67.82;;;27.08;;
73776;SDS011;62088;50.240;2.696;2022-11-14T17:03:10;68.88;;;27.17;;
73776;SDS011;62088;50.240;2.696;2022-11-14T17:05:55;70.40;;;28.85;;
73776;SDS011;62088;50.240;2.696;2022-11-14T17:08:41;64.40;;;28.08;;
73776;SDS011;62088;50.240;2.696;2022-11-14T17:11:27;70.95;;;29.02;;
73776;SDS011;62088;50.240;2.696;2022-11-14T17:14:12;69.93;;;30.10;;
73776;SDS011;62088;50.240;2.696;2022-11-14T17:16:58;65.65;;;29.90;;
73776;SDS011;62088;50.240;2.696;2022-11-14T17:19:46;63.58;;;30.70;;
73776;SDS011;62088;50.240;2.696;2022-11-14T17:22:31;73.22;;;31.60;;
73776;SDS011;62088;50.240;2.696;2022-11-14T17:25:17;67.13;;;31.50;;
73776;SDS011;62088;50.240;2.696;2022-11-14T17:28:03;73.68;;;30.88;;
73776;SDS011;62088;50.240;2.696;2022-11-14T17:30:48;66.60;;;29.95;;
73776;SDS011;62088;50.240;2.696;2022-11-14T17:33:34;65.45;;;29.48;;
73776;SDS011;62088;50.240;2.696;2022-11-14T17:36:21;65.88;;;28.75;;
73776;SDS011;62088;50.240;2.696;2022-11-14T17:39:07;78.95;;;30.55;;
73776;SDS011;62088;50.240;2.696;2022-11-14T17:41:54;76.18;;;31.35;;
73776;SDS011;62088;50.240;2.696;2022-11-14T17:44:39;83.28;;;33.08;;
73776;SDS011;62088;50.240;2.696;2022-11-14T17:47:25;83.20;;;33.53;;
73776;SDS011;62088;50.240;2.696;2022-11-14T17:50:11;87.90;;;35.70;;
73776;SDS011;62088;50.240;2.696;2022-11-14T17:52:57;85.45;;;33.40;;
73776;SDS011;62088;50.240;2.696;2022-11-14T17:55:42;81.65;;;32.38;;
73776;SDS011;62088;50.240;2.696;2022-11-14T17:58:29;82.07;;;33.58;;
73776;SDS011;62088;50.240;2.696;2022-11-14T18:01:17;85.97;;;32.97;;
73776;SDS011;62088;50.240;2.696;2022-11-14T18:04:04;90.20;;;34.00;;
73776;SDS011;62088;50.240;2.696;2022-11-14T18:06:50;72.60;;;32.55;;
73776;SDS011;62088;50.240;2.696;2022-11-14T18:09:36;80.68;;;34.30;;
73776;SDS011;62088;50.240;2.696;2022-11-14T18:12:22;97.75;;;39.35;;
73776;SDS011;62088;50.240;2.696;2022-11-14T18:15:07;84.78;;;35.15;;
73776;SDS011;62088;50.240;2.696;2022-11-14T18:17:53;88.97;;;36.13;;
73776;SDS011;62088;50.240;2.696;2022-11-14T18:20:39;96.13;;;36.13;;
73776;SDS011;62088;50.240;2.696;2022-11-14T18:23:24;93.80;;;36.15;;
73776;SDS011;62088;50.240;2.696;2022-11-14T18:26:10;89.00;;;36.50;;
73776;SDS011;62088;50.240;2.696;2022-11-14T18:28:59;88.43;;;36.53;;
73776;SDS011;62088;50.240;2.696;2022-11-14T18:31:48;93.72;;;37.58;;
73776;SDS011;62088;50.240;2.696;2022-11-14T18:34:34;98.97;;;38.47;;
73776;SDS011;62088;50.240;2.696;2022-11-14T18:37:24;90.93;;;37.80;;
73776;SDS011;62088;50.240;2.696;2022-11-14T18:40:10;110.72;;;44.78;;
73776;SDS011;62088;50.240;2.696;2022-11-14T18:43:00;93.00;;;39.97;;
73776;SDS011;62088;50.240;2.696;2022-11-14T18:45:46;111.97;;;47.03;;
73776;SDS011;62088;50.240;2.696;2022-11-14T18:48:31;88.22;;;39.67;;
73776;SDS011;62088;50.240;2.696;2022-11-14T18:51:18;90.53;;;37.95;;